Time;durP1;ratioP1;P1;durP2;ratioP2;P2;SDS_P1;SDS_P2;PMS_P1;PMS_P2;Temp;Humidity;BMP_temperature;BMP_pressure;BME280_temperature;BME280_humidity;BME280_pressure;Samples;Min_cycle;Max_cycle;Signal;HPM_P1;HPM_P2
2022/04/16 00:02:01;;;;;;;3.20;2.20;;;9.90;99.90;;;;;;5070721;28;20474;-70
2022/04/16 00:04:28;;;;;;;3.63;2.20;;;9.80;99.90;;;;;;5070659;28;20467;-71
2022/04/16 00:06:57;;;;;;;4.70;2.30;;;9.80;99.90;;;;;;5070909;28;20457;-69
2022/04/16 00:09:24;;;;;;;3.20;1.87;;;9.80;99.90;;;;;;5070780;28;20483;-69
2022/04/16 00:11:51;;;;;;;3.60;2.13;;;9.80;99.90;;;;;;5071108;28;20500;-70
2022/04/16 00:14:19;;;;;;;2.40;1.80;;;9.80;99.90;;;;;;5070753;28;20502;-69
2022/04/16 00:16:46;;;;;;;3.20;2.07;;;9.70;99.90;;;;;;5071153;28;20451;-70
2022/04/16 00:19:14;;;;;;;4.03;2.20;;;9.70;99.90;;;;;;5070849;28;20445;-71
2022/04/16 00:21:41;;;;;;;3.50;2.67;;;9.60;99.90;;;;;;5070921;28;20479;-74
2022/04/16 00:24:09;;;;;;;2.97;2.20;;;9.60;99.90;;;;;;5070608;28;20541;-70
2022/04/16 00:26:38;;;;;;;3.00;2.27;;;9.50;99.90;;;;;;5070946;28;20447;-69
2022/04/16 00:29:05;;;;;;;3.07;2.50;;;9.40;99.90;;;;;;5070664;28;20483;-72
2022/04/16 00:31:32;;;;;;;3.07;2.07;;;9.40;99.90;;;;;;5070965;28;20840;-70
2022/04/16 00:34:00;;;;;;;4.40;2.53;;;9.40;99.90;;;;;;5070743;28;20549;-70
2022/04/16 00:36:27;;;;;;;4.53;3.17;;;9.30;99.90;;;;;;5070542;28;20576;-70
2022/04/16 00:38:54;;;;;;;3.30;2.33;;;9.20;99.90;;;;;;5070550;28;20542;-69
2022/04/16 00:41:23;;;;;;;4.40;2.57;;;9.10;99.90;;;;;;5070434;28;20505;-70
2022/04/16 00:43:52;;;;;;;4.37;2.33;;;8.90;99.90;;;;;;5070517;28;20467;-70
2022/04/16 00:46:19;;;;;;;3.03;2.40;;;8.70;99.90;;;;;;5070267;28;20520;-69
2022/04/16 00:48:46;;;;;;;2.97;2.30;;;8.60;99.90;;;;;;5070476;28;20455;-70
2022/04/16 00:51:14;;;;;;;4.60;3.13;;;8.50;99.90;;;;;;5070194;28;20542;-69
2022/04/16 00:53:41;;;;;;;3.77;2.40;;;8.30;99.90;;;;;;5070137;28;21149;-70
2022/04/16 00:56:10;;;;;;;3.17;2.77;;;8.20;99.90;;;;;;5070115;28;20454;-70
2022/04/16 00:58:39;;;;;;;3.60;2.90;;;8.10;99.90;;;;;;5070347;28;20443;-70
2022/04/16 01:01:06;;;;;;;3.77;3.03;;;8.00;99.90;;;;;;5069201;28;20486;-69
2022/04/16 01:03:33;;;;;;;3.43;2.77;;;8.00;99.90;;;;;;5070187;28;20521;-69
2022/04/16 01:06:00;;;;;;;3.83;2.80;;;7.90;99.90;;;;;;5069813;28;20542;-68
2022/04/16 01:08:27;;;;;;;2.87;2.50;;;7.80;99.90;;;;;;5069881;28;20451;-69
2022/04/16 01:10:54;;;;;;;3.20;2.63;;;7.70;99.90;;;;;;5070192;28;20883;-69
2022/04/16 01:13:21;;;;;;;3.20;2.40;;;7.70;99.90;;;;;;5069972;28;20473;-70
2022/04/16 01:15:49;;;;;;;4.30;3.20;;;7.60;99.90;;;;;;5069855;28;20438;-68
2022/04/16 01:18:16;;;;;;;3.87;2.47;;;7.60;99.90;;;;;;5069861;28;20447;-69
2022/04/16 01:20:44;;;;;;;3.63;2.50;;;7.60;99.90;;;;;;5069535;28;21410;-69
2022/04/16 01:23:13;;;;;;;4.80;3.40;;;7.60;99.90;;;;;;5069989;28;20466;-70
2022/04/16 01:25:40;;;;;;;3.20;2.73;;;7.50;99.90;;;;;;5069812;28;20484;-68
2022/04/16 01:28:07;;;;;;;3.83;3.40;;;7.50;99.90;;;;;;5069155;28;20485;-69
2022/04/16 01:30:35;;;;;;;5.13;3.10;;;7.40;99.90;;;;;;5065826;28;20435;-69
2022/04/16 01:33:03;;;;;;;3.93;3.43;;;7.40;99.90;;;;;;5059290;28;20471;-68
2022/04/16 01:35:30;;;;;;;5.60;4.00;;;7.40;99.90;;;;;;5076553;28;20451;-69
2022/04/16 01:37:57;;;;;;;6.07;4.63;;;7.30;99.90;;;;;;5069778;28;20447;-72
2022/04/16 01:40:25;;;;;;;4.97;3.57;;;7.30;99.90;;;;;;5069522;28;20443;-68
2022/04/16 01:42:56;;;;;;;5.73;3.93;;;7.30;99.90;;;;;;5069657;28;20524;-68
2022/04/16 01:45:24;;;;;;;5.23;3.50;;;7.40;99.90;;;;;;5069220;28;20435;-68
2022/04/16 01:47:51;;;;;;;4.70;3.50;;;7.40;99.90;;;;;;5069511;28;20450;-68
2022/04/16 01:50:19;;;;;;;3.90;3.37;;;7.30;99.90;;;;;;5069632;28;20454;-70
2022/04/16 01:52:46;;;;;;;3.87;3.20;;;7.20;99.90;;;;;;5069650;28;20844;-71
2022/04/16 01:55:13;;;;;;;5.30;3.70;;;7.10;99.90;;;;;;5069139;28;20451;-68
2022/04/16 01:57:42;;;;;;;4.17;3.50;;;7.00;99.90;;;;;;5069952;28;20826;-69
2022/04/16 02:00:11;;;;;;;4.50;3.20;;;7.10;99.90;;;;;;5069756;28;20443;-69
2022/04/16 02:02:38;;;;;;;4.07;3.23;;;7.20;99.90;;;;;;5069864;28;20431;-71
2022/04/16 02:05:05;;;;;;;3.53;3.10;;;7.20;99.90;;;;;;5069589;28;20475;-69
2022/04/16 02:07:32;;;;;;;3.83;3.13;;;7.30;99.90;;;;;;5069298;28;20904;-68
2022/04/16 02:10:00;;;;;;;3.67;3.30;;;7.30;99.90;;;;;;5070005;28;20534;-68
2022/04/16 02:12:27;;;;;;;3.90;3.30;;;7.40;99.90;;;;;;5070247;28;20451;-68
2022/04/16 02:14:55;;;;;;;4.33;3.50;;;7.50;99.90;;;;;;5073287;28;20491;-71
2022/04/16 02:17:23;;;;;;;4.73;3.40;;;7.60;99.90;;;;;;5073488;28;20443;-71
2022/04/16 02:19:49;;;;;;;4.20;3.60;;;7.60;99.90;;;;;;5073376;28;20447;-69
2022/04/16 02:22:17;;;;;;;4.37;3.57;;;7.50;99.90;;;;;;5072815;28;20586;-72
2022/04/16 02:24:46;;;;;;;4.73;3.30;;;7.50;99.90;;;;;;5069905;28;20467;-69
2022/04/16 02:27:13;;;;;;;6.30;3.70;;;7.50;99.90;;;;;;5068087;28;20447;-70
2022/04/16 02:29:40;;;;;;;4.20;3.63;;;7.40;99.90;;;;;;5073815;28;20525;-68
2022/04/16 02:32:09;;;;;;;4.37;3.30;;;7.40;99.90;;;;;;5074396;28;20538;-70
2022/04/16 02:34:35;;;;;;;4.23;3.67;;;7.40;99.90;;;;;;5072370;28;20467;-70
2022/04/16 02:37:02;;;;;;;4.27;3.87;;;7.40;99.90;;;;;;5073170;28;20443;-69
2022/04/16 02:39:29;;;;;;;4.43;3.57;;;7.40;99.90;;;;;;5072877;28;20539;-70
2022/04/16 02:41:56;;;;;;;4.73;3.50;;;7.40;99.90;;;;;;5072930;28;20475;-70
2022/04/16 02:47:09;;;;;;;4.10;3.43;;;7.40;99.90;;;;;;5073069;28;20423;-70
2022/04/16 02:49:38;;;;;;;4.10;3.57;;;7.40;99.90;;;;;;5073019;28;21110;-73
2022/04/16 02:52:06;;;;;;;3.63;3.30;;;7.30;99.90;;;;;;5072921;28;20491;-72
2022/04/16 02:54:33;;;;;;;4.30;3.40;;;7.20;99.90;;;;;;5072444;28;20506;-70
2022/04/16 02:57:00;;;;;;;4.50;3.40;;;7.20;99.90;;;;;;5073059;28;20447;-70
2022/04/16 02:59:27;;;;;;;4.50;3.50;;;7.10;99.90;;;;;;5072673;28;20446;-71
2022/04/16 03:01:54;;;;;;;4.43;3.60;;;7.00;99.90;;;;;;5072625;28;20960;-70
2022/04/16 03:04:23;;;;;;;5.30;3.90;;;6.90;99.90;;;;;;5072161;28;20466;-71
2022/04/16 03:06:50;;;;;;;5.37;4.23;;;6.80;99.90;;;;;;5072230;28;20446;-70
2022/04/16 03:09:18;;;;;;;4.47;3.90;;;6.70;99.90;;;;;;5072238;28;20447;-70
2022/04/16 03:11:45;;;;;;;4.97;3.80;;;6.70;99.90;;;;;;5072875;28;20482;-71
2022/04/16 03:19:41;;;;;;;3.53;3.23;;;6.90;99.90;;;;;;5072371;28;20415;-71
2022/04/16 03:22:08;;;;;;;3.80;3.30;;;7.00;99.90;;;;;;5071883;28;20483;-70
2022/04/16 03:24:35;;;;;;;4.93;4.00;;;7.10;99.90;;;;;;5071019;28;20459;-69
2022/04/16 03:27:02;;;;;;;3.77;3.40;;;7.30;99.90;;;;;;5071991;28;20447;-70
2022/04/16 03:29:29;;;;;;;4.30;3.47;;;7.50;99.90;;;;;;5072214;28;20497;-69
2022/04/16 03:31:56;;;;;;;4.47;3.80;;;7.40;99.90;;;;;;5071795;28;20582;-70
2022/04/16 03:34:22;;;;;;;4.37;3.90;;;7.50;99.90;;;;;;5072297;28;20471;-70
2022/04/16 03:36:50;;;;;;;4.30;3.60;;;7.60;99.90;;;;;;5072874;28;20443;-69
2022/04/16 03:39:20;;;;;;;3.93;3.43;;;7.60;99.90;;;;;;5072502;28;20487;-69
2022/04/16 03:41:48;;;;;;;4.20;3.33;;;7.50;99.90;;;;;;5072430;28;20452;-69
2022/04/16 03:44:15;;;;;;;4.60;3.30;;;7.40;99.90;;;;;;5071357;28;20816;-70
2022/04/16 03:46:41;;;;;;;6.63;3.80;;;7.20;99.90;;;;;;5072226;28;20458;-70
2022/04/16 03:49:09;;;;;;;4.77;3.90;;;7.10;99.90;;;;;;5072389;28;20439;-71
2022/04/16 03:51:35;;;;;;;5.47;3.53;;;7.10;99.90;;;;;;5072436;28;20474;-69
2022/04/16 04:02:13;;;;;;;4.53;3.47;;;6.80;99.90;;;;;;5072081;28;20430;-69
2022/04/16 04:04:43;;;;;;;5.83;4.80;;;6.70;99.90;;;;;;5071383;28;20459;-69
2022/04/16 04:07:10;;;;;;;4.70;4.17;;;6.60;99.90;;;;;;5071671;28;20431;-69
2022/04/16 04:09:39;;;;;;;4.80;4.00;;;6.60;99.90;;;;;;5071457;28;20435;-69
2022/04/16 04:12:09;;;;;;;5.53;3.60;;;6.70;99.90;;;;;;5072047;28;20475;-69
2022/04/16 04:14:38;;;;;;;5.60;4.00;;;6.80;99.90;;;;;;5071109;28;20462;-69
2022/04/16 04:17:07;;;;;;;5.40;4.07;;;6.80;99.90;;;;;;5071065;28;20508;-69
2022/04/16 04:19:35;;;;;;;6.20;4.00;;;6.80;99.90;;;;;;5071125;28;20501;-70
2022/04/16 04:22:01;;;;;;;5.03;4.30;;;6.80;99.90;;;;;;5070704;28;20447;-72
2022/04/16 04:24:28;;;;;;;4.50;3.50;;;6.80;99.90;;;;;;5070746;28;20455;-70
2022/04/16 04:26:57;;;;;;;5.73;4.27;;;7.00;99.90;;;;;;5070979;28;20465;-70
2022/04/16 04:29:24;;;;;;;5.00;4.40;;;7.00;99.90;;;;;;5070889;28;20949;-71
2022/04/16 04:31:51;;;;;;;4.87;4.37;;;7.10;99.90;;;;;;5070696;28;20565;-70
2022/04/16 04:34:18;;;;;;;4.60;4.03;;;7.10;99.90;;;;;;5070367;28;20466;-70
2022/04/16 04:36:45;;;;;;;5.20;4.67;;;7.10;99.90;;;;;;5070699;28;20924;-70
2022/04/16 04:39:13;;;;;;;5.30;4.40;;;7.00;99.90;;;;;;5069226;28;20446;-70
2022/04/16 04:41:42;;;;;;;4.23;3.83;;;7.00;99.90;;;;;;5069544;28;20434;-71
2022/04/16 04:44:11;;;;;;;6.70;3.77;;;7.10;99.90;;;;;;5070515;28;20473;-70
2022/04/16 04:46:38;;;;;;;6.07;4.27;;;7.20;99.90;;;;;;5070496;28;20443;-69
2022/04/16 04:49:07;;;;;;;4.67;3.97;;;7.20;99.90;;;;;;5070399;28;20486;-69
2022/04/16 04:51:34;;;;;;;4.30;3.57;;;7.20;99.90;;;;;;5070715;28;20546;-70
2022/04/16 04:54:01;;;;;;;4.10;3.70;;;7.10;99.90;;;;;;5070450;28;20451;-71
2022/04/16 04:56:28;;;;;;;4.73;4.13;;;7.10;99.90;;;;;;5070713;28;20805;-72
2022/04/16 04:58:55;;;;;;;5.10;4.20;;;7.20;99.90;;;;;;5070285;28;20809;-71
2022/04/16 05:01:23;;;;;;;4.70;3.87;;;7.30;99.90;;;;;;5070517;28;20526;-71
2022/04/16 05:03:50;;;;;;;4.50;3.53;;;7.30;99.90;;;;;;5070420;28;20558;-70
2022/04/16 05:06:17;;;;;;;3.63;3.30;;;7.30;99.90;;;;;;5067923;28;20470;-71
2022/04/16 05:08:44;;;;;;;4.43;3.60;;;7.40;99.90;;;;;;5067216;28;20447;-70
2022/04/16 05:11:11;;;;;;;5.20;3.70;;;7.50;99.90;;;;;;5062466;28;20456;-71
2022/04/16 05:13:38;;;;;;;4.40;3.70;;;7.60;99.90;;;;;;5061835;28;20478;-69
2022/04/16 05:16:05;;;;;;;4.83;4.00;;;7.80;99.90;;;;;;5063673;28;20439;-67
2022/04/16 05:18:33;;;;;;;5.13;3.87;;;7.80;99.90;;;;;;5067292;28;20555;-65
2022/04/16 05:21:00;;;;;;;4.93;4.43;;;8.00;99.90;;;;;;5052480;28;20450;-69
2022/04/16 05:23:27;;;;;;;7.60;4.50;;;8.10;99.90;;;;;;5050337;28;20456;-69
2022/04/16 05:25:54;;;;;;;4.47;4.07;;;8.10;99.90;;;;;;5049708;28;20484;-67
2022/04/16 05:28:21;;;;;;;5.30;4.33;;;8.20;99.90;;;;;;5051988;28;20539;-69
2022/04/16 05:30:50;;;;;;;5.13;3.83;;;8.20;99.90;;;;;;5054010;28;20970;-67
2022/04/16 05:36:01;;;;;;;4.30;3.50;;;8.40;99.90;;;;;;5063101;28;20849;-68
2022/04/16 05:38:30;;;;;;;4.20;3.67;;;8.30;99.90;;;;;;5066474;28;20439;-69
2022/04/16 05:40:57;;;;;;;5.10;4.40;;;8.30;99.90;;;;;;5067128;28;20456;-66
2022/04/16 05:43:24;;;;;;;4.93;3.63;;;8.30;99.90;;;;;;5063274;28;20463;-68
2022/04/16 05:45:51;;;;;;;4.97;4.47;;;8.30;99.90;;;;;;5065424;28;20471;-68
2022/04/16 05:48:18;;;;;;;5.90;4.20;;;8.40;99.90;;;;;;5058879;28;20530;-69
2022/04/16 05:50:45;;;;;;;5.00;4.23;;;8.50;99.90;;;;;;5067031;28;20443;-66
2022/04/16 05:53:15;;;;;;;4.23;3.73;;;8.60;99.90;;;;;;5057015;28;20541;-68
2022/04/16 05:55:46;;;;;;;4.50;4.07;;;8.60;99.90;;;;;;5054922;28;20543;-68
2022/04/16 05:58:13;;;;;;;4.50;3.90;;;8.70;99.90;;;;;;5056069;28;20964;-68
2022/04/16 06:00:41;;;;;;;5.40;4.20;;;8.80;99.90;;;;;;5061011;28;20482;-66
2022/04/16 06:03:08;;;;;;;5.50;3.77;;;9.00;99.90;;;;;;5059505;28;20467;-68
2022/04/16 06:05:35;;;;;;;4.43;3.53;;;9.00;99.90;;;;;;5059587;28;20826;-66
2022/04/16 06:08:02;;;;;;;4.60;3.90;;;9.00;99.90;;;;;;5064146;28;20453;-66
2022/04/16 06:10:30;;;;;;;5.47;4.53;;;9.10;99.90;;;;;;5056195;28;20800;-66
2022/04/16 06:12:57;;;;;;;5.80;4.10;;;9.20;99.90;;;;;;5057683;28;20560;-64
2022/04/16 06:15:25;;;;;;;6.00;4.33;;;9.40;99.90;;;;;;5060552;28;20463;-63
2022/04/16 06:17:51;;;;;;;4.37;3.90;;;9.40;99.90;;;;;;5066127;28;20902;-63
2022/04/16 06:20:18;;;;;;;4.37;3.73;;;9.40;99.90;;;;;;5059925;28;20455;-65
2022/04/16 06:22:45;;;;;;;4.30;3.63;;;9.40;99.90;;;;;;5058540;28;20464;-65
2022/04/16 06:25:12;;;;;;;5.47;4.20;;;9.60;99.90;;;;;;5063699;28;20442;-64
2022/04/16 06:27:42;;;;;;;5.80;4.27;;;9.70;99.90;;;;;;5055643;28;21154;-63
2022/04/16 06:30:10;;;;;;;6.80;4.07;;;9.70;99.90;;;;;;5056596;28;20443;-65
2022/04/16 06:32:38;;;;;;;4.90;3.50;;;9.60;99.90;;;;;;5054680;28;20480;-60
2022/04/16 06:35:06;;;;;;;5.30;4.73;;;9.50;99.90;;;;;;5058069;28;20957;-65
2022/04/16 06:37:33;;;;;;;4.97;3.97;;;9.50;99.90;;;;;;5067556;28;20463;-65
2022/04/16 06:40:00;;;;;;;5.43;4.40;;;9.40;99.90;;;;;;5063490;28;20454;-65
2022/04/16 06:42:27;;;;;;;4.37;3.87;;;9.40;99.90;;;;;;5068082;28;20473;-66
2022/04/16 06:44:55;;;;;;;6.30;4.00;;;9.50;99.90;;;;;;5054504;28;20580;-65
2022/04/16 06:47:23;;;;;;;5.77;4.10;;;9.60;99.90;;;;;;5064191;28;20450;-65
2022/04/16 06:49:49;;;;;;;4.20;3.70;;;9.70;99.90;;;;;;5063166;28;20807;-64
2022/04/16 06:52:18;;;;;;;4.87;4.10;;;9.90;99.90;;;;;;5072891;28;21034;-65
2022/04/16 06:54:45;;;;;;;5.20;3.77;;;10.00;99.90;;;;;;5065918;28;20465;-65
2022/04/16 06:57:12;;;;;;;7.20;4.13;;;10.10;99.90;;;;;;5066275;28;20461;-64
2022/04/16 06:59:39;;;;;;;4.57;3.53;;;10.10;99.90;;;;;;5069758;28;20450;-64
2022/04/16 07:02:08;;;;;;;6.20;4.10;;;10.30;99.90;;;;;;5071443;28;20439;-65
2022/04/16 07:04:35;;;;;;;7.90;3.80;;;10.60;99.90;;;;;;5071951;28;20463;-64
2022/04/16 07:07:02;;;;;;;4.33;3.70;;;10.70;99.90;;;;;;5072546;28;20457;-65
2022/04/16 07:09:29;;;;;;;6.20;4.13;;;10.70;99.90;;;;;;5072476;28;20453;-65
2022/04/16 07:11:56;;;;;;;5.10;3.97;;;10.70;99.90;;;;;;5072242;28;20440;-64
2022/04/16 07:14:23;;;;;;;5.03;3.90;;;10.70;99.90;;;;;;5071780;28;20467;-64
2022/04/16 07:16:50;;;;;;;4.73;3.93;;;10.50;99.90;;;;;;5072414;28;20443;-67
2022/04/16 07:19:18;;;;;;;8.50;4.63;;;10.40;99.90;;;;;;5072327;28;20455;-64
2022/04/16 07:21:45;;;;;;;5.77;4.77;;;10.30;99.90;;;;;;5072185;28;20820;-65
2022/04/16 07:24:12;;;;;;;6.20;4.87;;;10.20;99.90;;;;;;5072107;28;20528;-65
2022/04/16 07:26:38;;;;;;;6.13;5.20;;;10.30;99.90;;;;;;5072126;28;20451;-65
2022/04/16 07:29:05;;;;;;;5.80;4.70;;;10.40;99.90;;;;;;5072117;28;20820;-64
2022/04/16 07:31:32;;;;;;;5.93;4.60;;;10.40;99.90;;;;;;5071891;28;20512;-66
2022/04/16 07:33:59;;;;;;;8.83;4.67;;;10.60;99.90;;;;;;5071647;28;20494;-65
2022/04/16 07:36:27;;;;;;;7.43;5.60;;;10.70;99.90;;;;;;5071809;28;20478;-65
2022/04/16 07:38:54;;;;;;;7.20;5.43;;;10.90;99.90;;;;;;5071927;28;20447;-65
2022/04/16 07:41:21;;;;;;;7.03;5.20;;;11.10;99.90;;;;;;5071848;28;20462;-66
2022/04/16 07:43:48;;;;;;;8.63;5.37;;;11.40;99.90;;;;;;5071972;28;20466;-63
2022/04/16 07:46:21;;;;;;;8.90;5.70;;;11.50;99.90;;;;;;5071686;28;20478;-64
2022/04/16 07:48:48;;;;;;;6.80;5.37;;;11.60;99.90;;;;;;5072180;28;21050;-66
2022/04/16 07:51:15;;;;;;;9.67;5.70;;;11.80;99.90;;;;;;5072087;28;20445;-64
2022/04/16 07:53:43;;;;;;;10.93;5.77;;;11.90;99.90;;;;;;5071749;28;20701;-66
2022/04/16 07:56:10;;;;;;;6.80;4.77;;;12.00;99.90;;;;;;5071490;28;20537;-66
2022/04/16 07:58:36;;;;;;;7.13;6.43;;;11.90;99.90;;;;;;5071632;28;20462;-65
2022/04/16 08:01:03;;;;;;;8.98;5.82;;;11.80;99.90;;;;;;5071805;28;20434;-66
2022/04/16 08:03:30;;;;;;;9.10;4.80;;;12.10;99.90;;;;;;5071570;28;20220;-66
2022/04/16 08:05:57;;;;;;;6.20;4.53;;;12.20;99.90;;;;;;5071683;28;20455;-66
2022/04/16 08:08:24;;;;;;;7.03;5.80;;;12.40;99.90;;;;;;5071609;28;20538;-65
2022/04/16 08:10:53;;;;;;;10.40;4.83;;;12.70;99.90;;;;;;5071149;28;20547;-65
2022/04/16 08:13:20;;;;;;;14.20;6.40;;;12.90;99.90;;;;;;5071129;28;20491;-66
2022/04/16 08:15:47;;;;;;;6.80;5.60;;;12.90;99.90;;;;;;5071401;28;20474;-65
2022/04/16 08:18:14;;;;;;;5.90;5.30;;;12.60;99.90;;;;;;5071402;28;20526;-65
2022/04/16 08:20:40;;;;;;;6.53;5.57;;;12.30;99.90;;;;;;5071200;28;20441;-67
2022/04/16 08:23:08;;;;;;;7.53;5.03;;;12.00;99.90;;;;;;5071080;28;20550;-66
2022/04/16 08:25:44;;;;;;;6.43;5.00;;;12.00;99.90;;;;;;5070501;28;20443;-66
2022/04/16 08:28:12;;;;;;;6.80;5.97;;;12.20;99.90;;;;;;5071202;28;20733;-65
2022/04/16 08:30:39;;;;;;;6.67;5.77;;;12.30;99.90;;;;;;5070791;28;20535;-65
2022/04/16 08:33:08;;;;;;;7.03;5.77;;;12.30;99.90;;;;;;5070746;28;20489;-65
2022/04/16 08:35:35;;;;;;;8.73;6.33;;;12.20;99.90;;;;;;5070471;28;20455;-67
2022/04/16 08:38:02;;;;;;;6.40;5.60;;;12.30;99.90;;;;;;5070834;28;20512;-64
2022/04/16 08:40:29;;;;;;;7.53;6.70;;;12.20;99.90;;;;;;5070706;28;20459;-65
2022/04/16 08:42:56;;;;;;;7.60;6.80;;;12.20;99.90;;;;;;5070591;28;20466;-66
2022/04/16 08:45:25;;;;;;;7.77;5.83;;;12.30;99.90;;;;;;5070385;28;20466;-65
2022/04/16 08:47:54;;;;;;;7.43;6.43;;;12.60;99.90;;;;;;5070486;28;20443;-65
2022/04/16 08:50:20;;;;;;;8.17;6.83;;;12.60;99.90;;;;;;5070485;28;20459;-64
2022/04/16 08:52:49;;;;;;;11.10;7.97;;;12.50;99.90;;;;;;5070086;28;21016;-64
2022/04/16 08:55:15;;;;;;;9.80;7.40;;;12.50;99.90;;;;;;5070243;28;20449;-64
2022/04/16 08:57:42;;;;;;;8.83;7.00;;;12.70;99.90;;;;;;5070537;28;20459;-65
2022/04/16 09:00:13;;;;;;;12.30;7.53;;;12.50;99.90;;;;;;5070207;28;20534;-66
2022/04/16 09:02:56;;;;;;;8.57;7.67;;;12.10;99.90;;;;;;5069777;28;20474;-65
2022/04/16 09:05:23;;;;;;;9.43;8.47;;;12.30;99.90;;;;;;5070031;28;20454;-65
2022/04/16 09:07:52;;;;;;;11.37;9.20;;;12.60;99.90;;;;;;5070411;28;20447;-65
2022/04/16 09:10:19;;;;;;;9.60;8.67;;;12.90;99.90;;;;;;5070182;28;20466;-67
2022/04/16 09:12:51;;;;;;;9.30;8.23;;;13.00;99.90;;;;;;5069809;28;20602;-64
2022/04/16 09:15:18;;;;;;;10.40;7.60;;;13.10;99.90;;;;;;5069773;28;20439;-65
2022/04/16 09:17:56;;;;;;;7.57;6.77;;;13.00;99.90;;;;;;5069894;28;20481;-64
2022/04/16 09:20:29;;;;;;;10.10;7.67;;;13.10;99.90;;;;;;5070235;28;20872;-65
2022/04/16 09:22:56;;;;;;;8.63;7.30;;;13.20;99.90;;;;;;5069067;28;20471;-65
2022/04/16 09:25:23;;;;;;;9.20;7.93;;;13.20;99.90;;;;;;5069556;28;20447;-65
2022/04/16 09:27:52;;;;;;;9.43;7.70;;;13.20;99.90;;;;;;5069796;28;20486;-65
2022/04/16 09:30:23;;;;;;;9.67;8.03;;;13.40;99.90;;;;;;5070066;28;20451;-65
2022/04/16 09:32:52;;;;;;;9.07;7.23;;;13.20;99.90;;;;;;5070317;28;20858;-65
2022/04/16 09:35:37;;;;;;;8.30;7.43;;;13.50;99.90;;;;;;5070253;28;20455;-65
2022/04/16 09:38:06;;;;;;;8.27;7.17;;;13.80;99.90;;;;;;5069899;28;20447;-65
2022/04/16 09:40:34;;;;;;;9.57;8.00;;;14.10;99.90;;;;;;5070007;28;20470;-64
2022/04/16 09:43:02;;;;;;;9.70;7.73;;;14.40;99.90;;;;;;5069676;28;20458;-65
2022/04/16 09:45:30;;;;;;;7.67;6.33;;;14.50;99.90;;;;;;5069692;28;20453;-65
2022/04/16 09:47:59;;;;;;;9.57;8.13;;;14.70;99.90;;;;;;5069864;28;20535;-67
2022/04/16 09:50:27;;;;;;;8.43;7.17;;;14.90;99.90;;;;;;5069948;28;20439;-65
2022/04/16 09:52:55;;;;;;;9.23;7.90;;;15.10;99.90;;;;;;5069733;28;20995;-62
2022/04/16 09:55:24;;;;;;;10.07;7.37;;;15.10;99.90;;;;;;5069433;28;20461;-64
2022/04/16 09:57:53;;;;;;;10.13;9.10;;;15.20;99.90;;;;;;5070128;28;20533;-64
2022/04/16 10:00:21;;;;;;;10.53;8.37;;;14.90;99.90;;;;;;5069737;28;20937;-65
2022/04/16 10:02:48;;;;;;;10.27;7.73;;;15.00;99.90;;;;;;5069831;28;20530;-64
2022/04/16 10:05:17;;;;;;;7.93;7.13;;;15.20;99.90;;;;;;5069350;28;20533;-67
2022/04/16 10:07:45;;;;;;;9.60;7.93;;;15.40;99.90;;;;;;5069531;28;20446;-65
2022/04/16 10:10:30;;;;;;;8.33;7.53;;;15.70;99.90;;;;;;5069616;28;20518;-64
2022/04/16 10:13:03;;;;;;;8.13;7.23;;;15.50;99.90;;;;;;5069393;28;21218;-67
2022/04/16 10:16:00;;;;;;;13.73;7.30;;;15.70;99.90;;;;;;5069179;28;20448;-64
2022/04/16 10:18:28;;;;;;;10.67;8.37;;;15.60;99.90;;;;;;5069747;28;20447;-65
2022/04/16 10:20:57;;;;;;;10.03;8.40;;;15.20;99.90;;;;;;5069167;28;21010;-64
2022/04/16 10:23:29;;;;;;;12.60;8.70;;;15.10;99.90;;;;;;5069526;28;20538;-64
2022/04/16 10:26:04;;;;;;;9.17;8.17;;;15.30;99.90;;;;;;5069007;28;20447;-65
2022/04/16 10:28:39;;;;;;;10.53;9.10;;;15.10;99.90;;;;;;5069358;28;20515;-65
2022/04/16 10:31:07;;;;;;;18.10;8.30;;;15.30;99.90;;;;;;5069311;28;20442;-65
2022/04/16 10:33:34;;;;;;;15.07;7.90;;;15.50;99.90;;;;;;5070243;28;20897;-65
2022/04/16 10:36:09;;;;;;;11.70;6.70;;;16.00;99.90;;;;;;5072816;28;20479;-65
2022/04/16 10:38:38;;;;;;;11.33;7.00;;;16.80;99.90;;;;;;5072775;28;20536;-65
2022/04/16 10:41:11;;;;;;;23.97;7.70;;;17.30;96.80;;;;;;5072759;28;20512;-66
2022/04/16 10:43:38;;;;;;;8.40;6.13;;;17.70;98.20;;;;;;5072911;28;20467;-65
2022/04/16 10:46:06;;;;;;;7.70;6.40;;;18.20;95.80;;;;;;5072599;28;20538;-64
2022/04/16 10:48:34;;;;;;;6.30;5.50;;;18.50;93.00;;;;;;5072934;28;20447;-64
2022/04/16 10:51:03;;;;;;;6.30;5.70;;;18.80;94.90;;;;;;5072618;28;20818;-64
2022/04/16 10:53:32;;;;;;;5.67;5.00;;;19.20;92.70;;;;;;5072501;28;20481;-65
2022/04/16 10:56:07;;;;;;;7.87;6.13;;;19.10;92.50;;;;;;5072573;28;20451;-65
2022/04/16 10:58:34;;;;;;;6.27;5.60;;;18.80;91.10;;;;;;5072767;28;20503;-65
2022/04/16 11:01:06;;;;;;;6.93;5.83;;;18.30;93.40;;;;;;5072333;28;20534;-65
2022/04/16 11:03:34;;;;;;;7.37;5.90;;;19.40;94.20;;;;;;5072365;28;20524;-66
2022/04/16 11:06:03;;;;;;;7.73;6.90;;;20.00;90.90;;;;;;5071904;28;20447;-62
2022/04/16 11:08:34;;;;;;;6.47;5.40;;;19.00;90.60;;;;;;5072499;28;20443;-65
2022/04/16 11:11:02;;;;;;;6.30;5.70;;;17.60;91.90;;;;;;5072322;28;20465;-65
2022/04/16 11:13:30;;;;;;;7.07;4.90;;;16.90;91.50;;;;;;5072167;28;20490;-64
2022/04/16 11:15:58;;;;;;;7.13;5.60;;;15.70;92.20;;;;;;5072093;28;20512;-65
2022/04/16 11:18:26;;;;;;;7.10;5.40;;;14.70;93.20;;;;;;5072266;28;21014;-66
2022/04/16 11:20:56;;;;;;;5.70;5.10;;;14.00;94.80;;;;;;5071903;28;20498;-64
2022/04/16 11:23:28;;;;;;;6.20;4.27;;;14.10;95.70;;;;;;5072312;28;20459;-64
2022/04/16 11:34:17;;;;;;;6.50;5.30;;;16.30;93.10;;;;;;5071763;28;20473;-65
2022/04/16 11:36:45;;;;;;;5.23;4.40;;;16.40;93.70;;;;;;5072016;28;20450;-66
2022/04/16 11:39:20;;;;;;;6.40;4.90;;;16.30;92.10;;;;;;5071969;28;20454;-66
2022/04/16 11:41:48;;;;;;;5.17;4.00;;;15.90;93.30;;;;;;5072020;28;20538;-65
2022/04/16 11:44:15;;;;;;;6.80;5.40;;;16.30;91.80;;;;;;5071614;28;20470;-65
2022/04/16 11:46:42;;;;;;;9.60;4.57;;;16.60;92.20;;;;;;5071273;28;20461;-65
2022/04/16 11:49:10;;;;;;;6.20;4.37;;;17.80;90.60;;;;;;5071738;28;20504;-65
2022/04/16 11:51:39;;;;;;;6.53;5.17;;;18.70;80.80;;;;;;5071663;28;20454;-66
2022/04/16 11:54:06;;;;;;;5.43;4.47;;;19.50;86.40;;;;;;5071214;28;20488;-65
2022/04/16 11:56:36;;;;;;;4.20;3.80;;;20.90;84.00;;;;;;5071608;28;20490;-65
2022/04/16 11:59:03;;;;;;;4.50;4.00;;;21.80;74.60;;;;;;5071841;28;20953;-65
2022/04/16 12:01:30;;;;;;;5.43;4.87;;;20.90;83.50;;;;;;5071922;28;20428;-64
2022/04/16 12:04:07;;;;;;;6.13;4.67;;;21.30;74.30;;;;;;5071636;28;20469;-65
2022/04/16 12:06:37;;;;;;;5.87;4.43;;;21.80;74.60;;;;;;5071371;28;20542;-64
2022/04/16 12:09:03;;;;;;;5.00;3.93;;;21.80;73.00;;;;;;5071289;28;20458;-64
2022/04/16 12:11:30;;;;;;;5.47;4.53;;;21.30;71.80;;;;;;5071422;28;20451;-64
2022/04/16 12:13:59;;;;;;;5.00;4.50;;;21.30;72.30;;;;;;5071134;28;20487;-67
2022/04/16 12:16:36;;;;;;;6.07;4.13;;;20.40;70.50;;;;;;5071350;28;20447;-64
2022/04/16 12:19:04;;;;;;;7.90;4.53;;;20.20;79.00;;;;;;5071537;28;20446;-64
2022/04/16 12:21:41;;;;;;;5.77;4.23;;;20.90;72.40;;;;;;5071212;28;20948;-64
2022/04/16 12:24:09;;;;;;;6.00;4.77;;;21.00;71.50;;;;;;5071275;28;20538;-65
2022/04/16 12:26:36;;;;;;;4.97;4.43;;;21.50;73.50;;;;;;5072767;28;20475;-64
2022/04/16 12:29:10;;;;;;;5.97;5.10;;;22.30;72.90;;;;;;5072909;28;20450;-62
2022/04/16 12:31:37;;;;;;;6.17;5.50;;;22.90;70.50;;;;;;5071330;28;20452;-65
2022/04/16 12:34:03;;;;;;;6.90;4.90;;;22.70;67.10;;;;;;5071209;28;20483;-66
2022/04/16 12:36:30;;;;;;;6.50;5.00;;;22.00;66.30;;;;;;5071020;28;20462;-67
2022/04/16 12:38:57;;;;;;;5.20;4.27;;;22.50;68.70;;;;;;5070993;28;20481;-65
2022/04/16 12:41:24;;;;;;;4.93;4.43;;;22.70;62.90;;;;;;5070729;28;20447;-67
2022/04/16 12:43:50;;;;;;;4.87;3.87;;;22.60;62.10;;;;;;5070638;28;20467;-65
2022/04/16 12:46:19;;;;;;;4.07;3.57;;;22.70;68.70;;;;;;5070333;28;20448;-65
2022/04/16 12:48:45;;;;;;;4.23;3.70;;;23.60;64.60;;;;;;5070801;28;20530;-65
2022/04/16 12:51:12;;;;;;;5.90;5.03;;;24.30;64.40;;;;;;5070754;28;20534;-65
2022/04/16 12:53:39;;;;;;;4.20;3.80;;;24.50;62.20;;;;;;5070608;28;20485;-65
2022/04/16 12:56:06;;;;;;;4.80;4.30;;;24.60;60.10;;;;;;5070202;28;20447;-67
2022/04/16 12:58:33;;;;;;;5.50;3.27;;;24.60;58.10;;;;;;5070449;28;21072;-65
2022/04/16 13:01:00;;;;;;;5.13;3.60;;;24.80;57.70;;;;;;5071311;28;20443;-65
2022/04/16 13:03:29;;;;;;;4.83;3.07;;;24.80;58.80;;;;;;5070614;28;21080;-66
2022/04/16 13:05:56;;;;;;;4.57;3.63;;;24.70;58.40;;;;;;5070302;28;20439;-65
2022/04/16 13:08:24;;;;;;;4.70;3.60;;;24.60;58.00;;;;;;5070450;28;21004;-65
2022/04/16 13:10:51;;;;;;;4.60;3.60;;;24.70;58.00;;;;;;5070451;28;20462;-67
2022/04/16 13:13:18;;;;;;;4.47;3.53;;;24.80;54.30;;;;;;5070123;28;20489;-68
2022/04/16 13:15:44;;;;;;;4.17;3.63;;;24.30;55.70;;;;;;5069820;28;20487;-66
2022/04/16 13:18:11;;;;;;;4.60;3.43;;;24.00;54.10;;;;;;5069989;28;20457;-65
2022/04/16 13:20:39;;;;;;;4.93;3.87;;;24.30;57.50;;;;;;5069894;28;20447;-68
2022/04/16 13:23:06;;;;;;;4.53;3.80;;;24.40;57.30;;;;;;5069807;28;20561;-65